Time;durP1;ratioP1;P1;durP2;ratioP2;P2;SDS_P1;SDS_P2;PMS_P1;PMS_P2;Temp;Humidity;BMP_temperature;BMP_pressure;BME280_temperature;BME280_humidity;BME280_pressure;Samples;Min_cycle;Max_cycle;Signal;HPM_P1;HPM_P2
2023/06/05 00:00:38;;;;;;;5.10;3.17;;;14.30;71.00;;;;;;5068710;28;20133;-68
2023/06/05 00:03:03;;;;;;;4.43;3.10;;;14.30;71.30;;;;;;5068069;28;20510;-68
2023/06/05 00:05:31;;;;;;;4.63;2.90;;;14.20;71.50;;;;;;5069071;28;20499;-71
2023/06/05 00:07:57;;;;;;;3.78;2.70;;;14.20;71.60;;;;;;5067798;28;20070;-70
2023/06/05 00:10:23;;;;;;;6.68;3.28;;;14.20;71.60;;;;;;5068522;28;20045;-70
2023/06/05 00:12:49;;;;;;;4.47;2.80;;;14.20;71.70;;;;;;5067444;28;20483;-69
2023/06/05 00:15:14;;;;;;;4.63;2.92;;;14.20;71.70;;;;;;5070407;28;20047;-67
2023/06/05 00:17:40;;;;;;;3.85;2.90;;;14.10;71.70;;;;;;5066948;28;20018;-65
2023/06/05 00:20:06;;;;;;;4.25;2.78;;;14.10;71.70;;;;;;5071008;28;20113;-68
2023/06/05 00:22:33;;;;;;;4.10;2.90;;;14.10;71.90;;;;;;5071692;28;20024;-68
2023/06/05 00:24:59;;;;;;;3.95;2.85;;;14.10;72.00;;;;;;5072608;28;20492;-68
2023/06/05 00:27:25;;;;;;;3.97;2.65;;;14.00;72.10;;;;;;5071346;28;20101;-68
2023/06/05 00:29:50;;;;;;;3.97;3.03;;;14.00;72.20;;;;;;5071201;28;20052;-69
2023/06/05 00:32:16;;;;;;;4.57;3.22;;;14.00;72.20;;;;;;5072283;28;20526;-70
2023/06/05 00:34:41;;;;;;;4.10;2.80;;;14.00;72.30;;;;;;5072977;28;20016;-69
2023/06/05 00:37:07;;;;;;;4.53;2.97;;;13.90;72.20;;;;;;5075122;28;20024;-71
2023/06/05 00:39:33;;;;;;;4.30;2.95;;;13.90;72.20;;;;;;5071255;28;20009;-70
2023/06/05 00:41:58;;;;;;;4.60;3.00;;;13.90;72.30;;;;;;5071202;28;20040;-70
2023/06/05 00:44:24;;;;;;;4.65;3.40;;;13.90;72.40;;;;;;5072417;28;20498;-70
2023/06/05 00:46:53;;;;;;;4.25;3.10;;;13.90;72.50;;;;;;5071438;28;20086;-70
2023/06/05 00:49:22;;;;;;;6.95;3.53;;;13.90;72.60;;;;;;5072070;28;20028;-70
2023/06/05 00:51:48;;;;;;;3.13;2.65;;;13.90;72.70;;;;;;5071713;28;20068;-69
2023/06/05 00:54:14;;;;;;;4.32;3.35;;;13.80;72.70;;;;;;5071360;28;20036;-69
2023/06/05 00:56:41;;;;;;;4.97;3.58;;;13.70;72.90;;;;;;5070522;28;20466;-69
2023/06/05 00:59:08;;;;;;;5.57;3.60;;;13.70;73.10;;;;;;5069289;28;20016;-69
2023/06/05 01:01:34;;;;;;;5.68;3.42;;;13.70;73.60;;;;;;5072091;28;20115;-69
2023/06/05 01:04:02;;;;;;;4.40;3.33;;;13.60;73.60;;;;;;5069562;28;20046;-68
2023/06/05 01:06:30;;;;;;;4.38;3.38;;;13.60;73.60;;;;;;5074710;28;20051;-69
2023/06/05 01:08:57;;;;;;;4.10;3.05;;;13.60;73.90;;;;;;5071080;28;20051;-69
2023/06/05 01:11:35;;;;;;;4.05;3.22;;;13.50;74.00;;;;;;5073174;28;20031;-70
2023/06/05 01:14:15;;;;;;;3.65;3.00;;;13.50;74.10;;;;;;5069291;28;20035;-69
2023/06/05 01:16:44;;;;;;;4.10;3.30;;;13.50;74.40;;;;;;5069105;28;20024;-68
2023/06/05 01:19:14;;;;;;;6.53;3.60;;;13.40;74.50;;;;;;5069766;28;20044;-68
2023/06/05 01:21:40;;;;;;;6.82;3.80;;;13.40;75.10;;;;;;5070230;28;20013;-68
2023/06/05 01:24:05;;;;;;;5.43;3.85;;;13.30;75.00;;;;;;5069738;28;20031;-68
2023/06/05 01:26:52;;;;;;;6.85;3.92;;;13.30;75.00;;;;;;5072567;28;20035;-69
2023/06/05 01:29:21;;;;;;;4.20;3.65;;;13.20;75.40;;;;;;5070478;28;20033;-68
2023/06/05 01:31:47;;;;;;;5.85;4.05;;;13.20;75.70;;;;;;5068883;28;20056;-68
2023/06/05 01:34:19;;;;;;;6.40;4.10;;;13.20;76.00;;;;;;5069450;28;20047;-69
2023/06/05 01:36:45;;;;;;;;;;;13.00;76.80;;;;;;5072849;28;20028;-69
2023/06/05 01:39:11;;;;;;;6.20;4.65;;;13.00;76.50;;;;;;5071935;28;20415;-69
2023/06/05 01:41:39;;;;;;;5.72;4.13;;;12.90;76.90;;;;;;5074323;28;20031;-69
2023/06/05 01:44:08;;;;;;;7.35;4.55;;;13.00;76.90;;;;;;5072884;28;20024;-69
2023/06/05 01:46:33;;;;;;;5.25;4.00;;;12.90;77.10;;;;;;5070294;28;20111;-68
2023/06/05 01:49:02;;;;;;;6.88;4.70;;;12.90;77.20;;;;;;5068554;28;20131;-68
2023/06/05 01:51:28;;;;;;;6.20;4.53;;;12.80;77.40;;;;;;5068357;28;20101;-68
2023/06/05 01:53:53;;;;;;;6.20;4.40;;;12.80;77.80;;;;;;5070452;28;20024;-69
2023/06/05 01:56:19;;;;;;;5.85;4.30;;;12.80;78.00;;;;;;5069728;28;20031;-70
2023/06/05 01:58:47;;;;;;;4.93;3.78;;;12.70;77.90;;;;;;5074697;28;20028;-69
2023/06/05 02:01:15;;;;;;;5.68;4.55;;;12.70;78.10;;;;;;5070129;28;20479;-69
2023/06/05 02:03:47;;;;;;;5.78;4.50;;;12.60;78.40;;;;;;5066573;28;20037;-70
2023/06/05 02:06:14;;;;;;;5.50;4.10;;;12.60;78.50;;;;;;5068893;28;20016;-70
2023/06/05 02:08:40;;;;;;;5.35;4.05;;;12.70;78.40;;;;;;5069559;28;20024;-69
2023/06/05 02:11:09;;;;;;;5.53;4.32;;;12.70;78.40;;;;;;5070871;28;20268;-70
2023/06/05 02:13:39;;;;;;;6.18;4.28;;;12.70;78.20;;;;;;5069767;28;20024;-70
2023/06/05 02:16:07;;;;;;;5.20;4.25;;;12.70;78.10;;;;;;5072096;28;20040;-69
2023/06/05 02:18:36;;;;;;;5.50;3.85;;;12.70;78.00;;;;;;5069610;28;20387;-70
2023/06/05 02:21:03;;;;;;;7.15;4.70;;;12.70;77.90;;;;;;5070155;28;20013;-70
2023/06/05 02:23:28;;;;;;;6.22;4.53;;;12.70;77.90;;;;;;5068927;28;20364;-69
2023/06/05 02:25:54;;;;;;;5.00;4.10;;;12.70;78.50;;;;;;5073663;28;20027;-69
2023/06/05 02:28:20;;;;;;;5.22;4.10;;;12.70;77.90;;;;;;5067299;28;20510;-70
2023/06/05 02:30:47;;;;;;;6.07;4.82;;;12.70;77.90;;;;;;5069482;28;20115;-69
2023/06/05 02:33:14;;;;;;;5.88;4.63;;;12.60;78.10;;;;;;5069621;28;20035;-69
2023/06/05 02:35:40;;;;;;;6.00;4.35;;;12.60;78.40;;;;;;5073101;28;20430;-70
2023/06/05 02:38:12;;;;;;;6.20;4.45;;;12.50;78.40;;;;;;5069539;28;20491;-69
2023/06/05 02:40:38;;;;;;;8.18;4.85;;;12.50;78.40;;;;;;5071324;28;20020;-69
2023/06/05 02:43:05;;;;;;;6.50;4.88;;;12.60;78.40;;;;;;5067982;28;20479;-69
2023/06/05 02:45:33;;;;;;;5.53;4.22;;;12.50;78.50;;;;;;5067698;28;20589;-69
2023/06/05 02:47:58;;;;;;;5.20;4.38;;;12.50;78.40;;;;;;5068138;28;20379;-69
2023/06/05 02:50:24;;;;;;;6.05;4.65;;;12.50;78.60;;;;;;5072698;28;20103;-69
2023/06/05 02:52:49;;;;;;;6.07;4.97;;;12.40;78.80;;;;;;5071909;28;20716;-68
2023/06/05 02:55:16;;;;;;;9.15;5.18;;;12.40;78.90;;;;;;5070654;28;20477;-68
2023/06/05 02:57:42;;;;;;;7.07;4.95;;;12.40;79.00;;;;;;5065083;28;20467;-68
2023/06/05 03:00:09;;;;;;;7.25;5.03;;;12.40;79.10;;;;;;5069129;28;20020;-68
2023/06/05 03:02:36;;;;;;;6.88;5.03;;;12.30;79.20;;;;;;5067892;28;20067;-68
2023/06/05 03:05:03;;;;;;;6.03;4.80;;;12.30;79.30;;;;;;5068997;28;20443;-68
2023/06/05 03:07:29;;;;;;;7.60;4.35;;;12.30;79.30;;;;;;5066260;28;20042;-69
2023/06/05 03:09:55;;;;;;;7.25;5.30;;;12.30;79.20;;;;;;5068462;28;20394;-69
2023/06/05 03:12:20;;;;;;;7.03;5.00;;;12.30;79.20;;;;;;5068945;28;20033;-68
2023/06/05 03:14:46;;;;;;;8.60;5.47;;;12.30;79.30;;;;;;5070107;28;20417;-68
2023/06/05 03:17:12;;;;;;;7.22;5.10;;;12.30;79.50;;;;;;5066189;28;20064;-68
2023/06/05 03:19:37;;;;;;;6.97;4.93;;;12.20;79.60;;;;;;5070483;28;20692;-68
2023/06/05 03:22:04;;;;;;;6.80;4.90;;;12.30;79.60;;;;;;5069062;28;20017;-68
2023/06/05 03:24:29;;;;;;;7.28;5.53;;;12.30;79.60;;;;;;5069380;28;20032;-68
2023/06/05 03:26:55;;;;;;;7.28;5.45;;;12.20;79.80;;;;;;5069729;28;20031;-68
2023/06/05 03:29:20;;;;;;;9.00;5.40;;;12.20;79.90;;;;;;5066140;28;20106;-68
2023/06/05 03:31:46;;;;;;;7.25;5.70;;;12.20;80.00;;;;;;5070302;28;20044;-69
2023/06/05 03:34:12;;;;;;;6.82;5.50;;;12.10;80.10;;;;;;5069250;28;20031;-69
2023/06/05 03:36:39;;;;;;;7.45;5.32;;;12.10;80.20;;;;;;5071820;28;20028;-69
2023/06/05 03:39:06;;;;;;;7.45;5.63;;;12.10;80.20;;;;;;5072550;28;20016;-69
2023/06/05 03:41:32;;;;;;;6.28;4.93;;;12.10;80.30;;;;;;5066713;28;20071;-68
2023/06/05 03:43:58;;;;;;;8.55;5.40;;;12.10;80.20;;;;;;5070832;28;20059;-68
2023/06/05 03:46:24;;;;;;;8.00;5.60;;;12.10;80.30;;;;;;5068096;28;20444;-68
2023/06/05 03:48:53;;;;;;;7.97;6.00;;;12.10;80.30;;;;;;5065275;28;20020;-68
2023/06/05 03:51:19;;;;;;;6.65;5.53;;;12.10;80.60;;;;;;5069734;28;20021;-68
2023/06/05 03:53:45;;;;;;;7.40;5.60;;;12.10;80.60;;;;;;5069427;28;20029;-68
2023/06/05 03:56:15;;;;;;;6.65;5.35;;;12.10;80.50;;;;;;5069358;28;20020;-70
2023/06/05 03:58:41;;;;;;;6.05;4.93;;;12.10;80.60;;;;;;5072461;28;20017;-71
2023/06/05 04:01:06;;;;;;;7.82;5.60;;;12.10;80.60;;;;;;5073841;28;20028;-70
2023/06/05 04:03:34;;;;;;;7.07;5.10;;;12.10;80.60;;;;;;5073080;28;20028;-70
2023/06/05 04:06:00;;;;;;;7.50;5.60;;;12.10;80.50;;;;;;5076046;28;20025;-70
2023/06/05 04:08:25;;;;;;;6.95;4.85;;;12.10;80.50;;;;;;5074144;28;20101;-70
2023/06/05 04:10:52;;;;;;;7.75;5.57;;;12.10;80.40;;;;;;5072641;28;20037;-69
2023/06/05 04:13:18;;;;;;;7.25;5.55;;;12.20;80.40;;;;;;5068488;28;20064;-69
2023/06/05 04:15:44;;;;;;;8.00;5.35;;;12.20;80.50;;;;;;5069578;28;20059;-68
2023/06/05 04:18:09;;;;;;;7.13;5.22;;;12.20;80.40;;;;;;5069781;28;20503;-70
2023/06/05 04:20:35;;;;;;;7.78;5.85;;;12.10;80.30;;;;;;5067067;28;20020;-69
2023/06/05 04:23:01;;;;;;;7.75;5.75;;;12.10;80.60;;;;;;5070189;28;20024;-69
2023/06/05 04:25:28;;;;;;;7.28;5.60;;;12.10;80.70;;;;;;5072700;28;21681;-68
2023/06/05 04:27:55;;;;;;;7.72;5.60;;;12.10;80.80;;;;;;5064738;28;20053;-68
2023/06/05 04:30:21;;;;;;;7.75;5.93;;;12.10;80.90;;;;;;5064340;28;20372;-69
2023/06/05 04:32:54;;;;;;;9.95;6.35;;;12.10;81.00;;;;;;5065550;28;20025;-69
2023/06/05 04:35:20;;;;;;;8.63;6.43;;;12.10;80.90;;;;;;5069347;28;20028;-70
2023/06/05 04:37:46;;;;;;;7.97;6.03;;;12.10;81.10;;;;;;5067135;28;20027;-70
2023/06/05 04:40:11;;;;;;;7.72;5.80;;;12.20;81.00;;;;;;5072352;28;20506;-69
2023/06/05 04:42:37;;;;;;;8.20;6.00;;;12.20;80.80;;;;;;5070228;28;20021;-70
2023/06/05 04:45:06;;;;;;;7.57;5.85;;;12.30;80.80;;;;;;5068997;28;20086;-70
2023/06/05 04:47:32;;;;;;;9.38;5.78;;;12.30;80.70;;;;;;5062796;28;20032;-68
2023/06/05 04:49:59;;;;;;;8.60;5.90;;;12.30;80.60;;;;;;5066536;28;20035;-68
2023/06/05 04:52:26;;;;;;;8.45;6.15;;;12.30;80.60;;;;;;5066046;28;20074;-68
2023/06/05 04:54:52;;;;;;;10.93;6.72;;;12.50;80.70;;;;;;5071651;28;20676;-68
2023/06/05 04:57:18;;;;;;;8.40;6.13;;;12.80;80.00;;;;;;5069319;28;20032;-68
2023/06/05 04:59:44;;;;;;;7.13;5.70;;;13.20;78.90;;;;;;5070192;28;20471;-68
2023/06/05 05:02:10;;;;;;;8.50;6.15;;;13.60;77.70;;;;;;5069229;28;20032;-69
2023/06/05 05:04:35;;;;;;;8.52;5.65;;;13.90;76.50;;;;;;5069417;28;20031;-69
2023/06/05 05:07:01;;;;;;;8.60;6.28;;;14.20;75.60;;;;;;5065482;28;20028;-69
2023/06/05 05:09:28;;;;;;;9.05;6.38;;;14.50;74.60;;;;;;5065263;28;20052;-68
2023/06/05 05:11:54;;;;;;;6.40;5.35;;;14.70;73.90;;;;;;5068037;28;20024;-68
2023/06/05 05:14:20;;;;;;;8.18;6.03;;;14.80;73.10;;;;;;5068204;28;20033;-68
2023/06/05 05:16:46;;;;;;;6.55;5.53;;;15.00;72.90;;;;;;5069061;28;20399;-69
2023/06/05 05:19:11;;;;;;;8.18;5.95;;;15.20;71.90;;;;;;5070831;28;20816;-68
2023/06/05 05:21:37;;;;;;;7.32;4.95;;;15.40;71.20;;;;;;5066927;28;20024;-69
2023/06/05 05:24:03;;;;;;;7.82;6.18;;;15.50;70.80;;;;;;5069353;28;20139;-69
2023/06/05 05:26:28;;;;;;;6.85;5.85;;;15.70;70.30;;;;;;5065399;28;20025;-68
2023/06/05 05:28:54;;;;;;;6.82;5.10;;;15.90;69.90;;;;;;5070676;28;20028;-69
2023/06/05 05:31:20;;;;;;;7.15;5.60;;;16.00;69.40;;;;;;5065885;28;20028;-69
2023/06/05 05:33:45;;;;;;;7.97;5.95;;;16.30;68.70;;;;;;5062981;28;20495;-70
2023/06/05 05:36:11;;;;;;;10.40;6.03;;;16.20;68.20;;;;;;5068236;28;20038;-70
2023/06/05 05:38:36;;;;;;;8.88;6.18;;;16.40;68.20;;;;;;5058911;28;20101;-70
2023/06/05 05:41:02;;;;;;;8.13;6.13;;;16.30;68.10;;;;;;5063403;28;20844;-69
2023/06/05 05:43:27;;;;;;;7.80;6.05;;;16.30;68.10;;;;;;5061008;28;20028;-70
2023/06/05 05:45:53;;;;;;;8.38;6.28;;;16.30;68.10;;;;;;5063616;28;20081;-69
2023/06/05 05:48:19;;;;;;;7.57;5.95;;;16.30;68.20;;;;;;5069509;28;20036;-70
2023/06/05 05:50:45;;;;;;;7.88;5.75;;;16.40;68.30;;;;;;5067819;28;20021;-69
2023/06/05 05:53:10;;;;;;;7.65;5.05;;;16.50;68.30;;;;;;5067638;28;20043;-69
2023/06/05 05:55:36;;;;;;;7.45;5.53;;;16.50;68.20;;;;;;5067388;28;20637;-69
2023/06/05 05:58:01;;;;;;;7.90;5.00;;;16.50;68.20;;;;;;5067194;28;20024;-70
2023/06/05 06:00:28;;;;;;;7.47;5.28;;;16.50;68.30;;;;;;5067709;28;20064;-69
2023/06/05 06:02:53;;;;;;;6.32;4.72;;;16.50;68.40;;;;;;5066542;28;20123;-69
2023/06/05 06:05:20;;;;;;;6.50;4.90;;;16.60;68.60;;;;;;5065794;28;20123;-69
2023/06/05 06:07:46;;;;;;;8.50;5.43;;;16.50;68.50;;;;;;5070824;28;20044;-69
2023/06/05 06:10:12;;;;;;;7.53;5.35;;;16.40;68.50;;;;;;5068349;28;20106;-68
2023/06/05 06:12:38;;;;;;;6.68;5.10;;;16.40;68.60;;;;;;5069440;28;20020;-69
2023/06/05 06:15:05;;;;;;;6.38;4.82;;;16.40;68.80;;;;;;5064126;28;20024;-69
2023/06/05 06:17:30;;;;;;;8.00;5.85;;;16.50;68.70;;;;;;5064991;28;20024;-70
2023/06/05 06:19:57;;;;;;;9.05;5.40;;;16.40;68.60;;;;;;5068190;28;20020;-69
2023/06/05 06:22:22;;;;;;;8.02;5.70;;;16.30;68.70;;;;;;5067879;28;20020;-69
2023/06/05 06:24:50;;;;;;;8.02;5.47;;;16.20;68.50;;;;;;5066080;28;20032;-67
2023/06/05 06:27:17;;;;;;;9.90;6.00;;;16.30;68.40;;;;;;5068674;28;20028;-68
2023/06/05 06:29:52;;;;;;;7.38;5.70;;;16.10;68.60;;;;;;5062553;28;20024;-69
2023/06/05 06:32:18;;;;;;;7.60;5.50;;;16.10;68.90;;;;;;5067616;28;20032;-69
2023/06/05 06:34:44;;;;;;;7.20;5.38;;;16.10;68.60;;;;;;5065251;28;20020;-70
2023/06/05 06:37:20;;;;;;;7.50;4.85;;;16.10;68.40;;;;;;5062228;28;20051;-69
2023/06/05 06:39:46;;;;;;;6.43;4.90;;;16.20;68.40;;;;;;5065545;28;20035;-69
2023/06/05 06:42:12;;;;;;;7.22;4.97;;;16.30;68.30;;;;;;5070012;28;20502;-69
2023/06/05 06:44:38;;;;;;;8.07;5.15;;;16.40;67.90;;;;;;5069787;28;20387;-70
2023/06/05 06:47:04;;;;;;;9.05;6.57;;;16.50;67.40;;;;;;5067674;28;20024;-69
2023/06/05 06:49:30;;;;;;;9.73;5.45;;;16.50;67.20;;;;;;5068483;28;20743;-70
2023/06/05 06:51:56;;;;;;;7.25;4.78;;;16.50;67.00;;;;;;5064916;28;20020;-69
2023/06/05 06:54:22;;;;;;;6.18;4.63;;;16.60;67.00;;;;;;5066047;28;20028;-69
2023/06/05 06:56:49;;;;;;;8.27;5.38;;;16.60;66.60;;;;;;5068704;28;20021;-68
2023/06/05 06:59:15;;;;;;;6.78;5.07;;;16.70;66.20;;;;;;5067046;28;20024;-69
2023/06/05 07:01:45;;;;;;;7.43;5.32;;;16.80;66.00;;;;;;5063998;28;20509;-68
2023/06/05 07:04:12;;;;;;;8.60;5.40;;;16.80;66.00;;;;;;5072123;28;20024;-68
2023/06/05 07:06:38;;;;;;;5.25;4.15;;;16.70;66.00;;;;;;5066179;28;20032;-68
2023/06/05 07:09:04;;;;;;;6.15;4.40;;;16.90;66.10;;;;;;5070678;28;20402;-68
2023/06/05 07:11:29;;;;;;;9.38;4.60;;;17.00;65.80;;;;;;5066784;28;20039;-67
2023/06/05 07:13:55;;;;;;;5.80;4.30;;;17.20;65.40;;;;;;5070836;28;20361;-68
2023/06/05 07:16:20;;;;;;;6.88;4.53;;;17.40;65.00;;;;;;5070670;28;20024;-69
2023/06/05 07:18:46;;;;;;;8.40;4.63;;;17.30;64.30;;;;;;5067835;28;20020;-69
2023/06/05 07:21:12;;;;;;;6.97;4.75;;;17.40;64.30;;;;;;5074228;28;20097;-69
2023/06/05 07:23:39;;;;;;;7.45;4.85;;;17.40;64.50;;;;;;5069320;28;20445;-69
2023/06/05 07:26:04;;;;;;;7.22;4.40;;;17.50;65.00;;;;;;5070503;28;20020;-69
2023/06/05 07:28:30;;;;;;;7.00;4.07;;;17.70;64.10;;;;;;5076511;28;20035;-69
2023/06/05 07:30:55;;;;;;;5.95;4.05;;;17.80;63.70;;;;;;5073444;28;20028;-69
2023/06/05 07:33:21;;;;;;;6.53;4.30;;;17.90;63.30;;;;;;5076398;28;20036;-69
2023/06/05 07:35:48;;;;;;;6.93;4.50;;;17.90;62.90;;;;;;5080701;28;20024;-68
2023/06/05 07:38:14;;;;;;;8.30;4.60;;;18.10;62.80;;;;;;5073207;28;20602;-67
2023/06/05 07:40:40;;;;;;;7.35;4.43;;;18.10;62.60;;;;;;5073025;28;20051;-68
2023/06/05 07:43:06;;;;;;;7.68;4.85;;;18.10;62.60;;;;;;5074208;28;20051;-68
2023/06/05 07:45:31;;;;;;;7.72;4.68;;;18.10;62.60;;;;;;5071818;28;20028;-68
2023/06/05 07:47:57;;;;;;;6.60;4.28;;;18.30;62.60;;;;;;5072095;28;20069;-68
2023/06/05 07:50:23;;;;;;;7.35;4.47;;;18.40;62.40;;;;;;5073894;28;20020;-68
2023/06/05 07:52:48;;;;;;;7.82;4.60;;;18.40;62.10;;;;;;5078499;28;20020;-69
2023/06/05 07:55:15;;;;;;;6.68;4.60;;;18.50;62.10;;;;;;5070168;28;20292;-69
2023/06/05 07:57:41;;;;;;;5.45;3.88;;;18.60;61.90;;;;;;5070599;28;20031;-69
2023/06/05 08:00:10;;;;;;;5.63;4.00;;;18.60;61.80;;;;;;5077870;28;20025;-70
2023/06/05 08:02:37;;;;;;;5.97;4.00;;;18.70;61.50;;;;;;5079959;28;20024;-70
2023/06/05 08:05:03;;;;;;;7.97;4.72;;;18.70;61.60;;;;;;5076578;28;20111;-70
2023/06/05 08:07:28;;;;;;;5.40;4.00;;;18.90;61.40;;;;;;5076488;28;20775;-69
2023/06/05 08:09:54;;;;;;;6.40;4.13;;;19.00;61.40;;;;;;5076220;28;20028;-69
2023/06/05 08:12:19;;;;;;;5.53;4.15;;;19.10;61.30;;;;;;5072645;28;20032;-69
2023/06/05 08:14:45;;;;;;;6.68;4.82;;;19.10;61.10;;;;;;5069091;28;20173;-69
2023/06/05 08:17:11;;;;;;;7.90;4.22;;;19.10;60.50;;;;;;5071681;28;20039;-69
2023/06/05 08:19:36;;;;;;;5.47;3.58;;;19.10;60.90;;;;;;5071868;28;20087;-69
2023/06/05 08:22:04;;;;;;;6.45;4.30;;;19.20;60.80;;;;;;5072164;28;20099;-69
2023/06/05 08:24:29;;;;;;;7.35;4.47;;;19.30;60.70;;;;;;5078627;28;20068;-69
2023/06/05 08:26:55;;;;;;;7.88;5.10;;;19.40;60.50;;;;;;5082161;28;20506;-69
2023/06/05 08:29:20;;;;;;;8.50;4.32;;;19.40;60.20;;;;;;5074505;28;20031;-69
2023/06/05 08:31:46;;;;;;;6.25;3.75;;;19.40;60.60;;;;;;5058933;28;20045;-69
2023/06/05 08:34:12;;;;;;;6.78;3.85;;;19.60;60.60;;;;;;5070208;28;20028;-69
2023/06/05 08:36:37;;;;;;;4.90;3.38;;;19.80;60.20;;;;;;5078788;28;20016;-69
2023/06/05 08:39:04;;;;;;;6.18;3.83;;;19.90;59.90;;;;;;5069674;28;20024;-69
2023/06/05 08:41:33;;;;;;;6.63;4.50;;;20.00;59.70;;;;;;5070390;28;20035;-69
2023/06/05 08:43:59;;;;;;;5.47;3.88;;;20.10;59.50;;;;;;5059772;28;20536;-69
2023/06/05 08:46:28;;;;;;;7.47;4.25;;;20.20;59.20;;;;;;5070042;28;20116;-69
2023/06/05 08:48:56;;;;;;;4.93;3.67;;;20.30;59.30;;;;;;5063222;28;20108;-69
2023/06/05 08:51:22;;;;;;;6.10;4.30;;;20.40;59.20;;;;;;5077959;28;20016;-69
2023/06/05 08:54:12;;;;;;;6.55;3.97;;;20.50;59.00;;;;;;5063355;28;20089;-69
2023/06/05 08:56:39;;;;;;;6.85;4.38;;;20.50;58.80;;;;;;5086604;28;20123;-69
2023/06/05 08:59:06;;;;;;;8.38;4.00;;;20.50;58.60;;;;;;5078405;28;20027;-69
2023/06/05 09:01:35;;;;;;;5.68;3.85;;;20.60;58.60;;;;;;5072447;28;20036;-69
2023/06/05 09:04:01;;;;;;;5.43;3.83;;;20.70;58.20;;;;;;5069552;28;20525;-69
2023/06/05 09:06:27;;;;;;;6.40;4.20;;;20.80;58.20;;;;;;5068094;28;20036;-69
2023/06/05 09:08:54;;;;;;;5.18;3.88;;;20.90;58.30;;;;;;5083777;28;20095;-69
2023/06/05 09:11:25;;;;;;;5.10;3.53;;;20.90;57.80;;;;;;5064675;28;20056;-69
2023/06/05 09:13:51;;;;;;;6.07;3.92;;;20.90;57.80;;;;;;5060704;28;20364;-68
2023/06/05 09:16:37;;;;;;;4.05;3.13;;;21.10;57.70;;;;;;5078914;28;20058;-69
2023/06/05 09:19:03;;;;;;;5.38;4.05;;;21.20;57.50;;;;;;5069420;28;20464;-68
2023/06/05 09:21:32;;;;;;;5.32;3.92;;;21.30;57.10;;;;;;5062826;28;20083;-69
2023/06/05 09:24:25;;;;;;;5.20;4.00;;;21.30;57.00;;;;;;5053576;28;20025;-69
2023/06/05 09:26:56;;;;;;;6.25;4.78;;;21.40;56.50;;;;;;5053574;28;20086;-69
2023/06/05 09:29:22;;;;;;;7.82;4.57;;;21.20;56.80;;;;;;5059346;28;20040;-68
2023/06/05 09:31:49;;;;;;;5.68;4.05;;;21.20;57.00;;;;;;5066994;28;20025;-68
2023/06/05 09:34:30;;;;;;;6.88;5.05;;;21.20;57.00;;;;;;5072932;28;20025;-67
2023/06/05 09:37:01;;;;;;;5.40;3.88;;;21.30;56.70;;;;;;5071011;28;20043;-68
2023/06/05 09:39:28;;;;;;;5.60;3.80;;;21.20;56.70;;;;;;5058391;28;20430;-68
2023/06/05 09:41:55;;;;;;;5.82;3.60;;;21.30;56.80;;;;;;5076131;28;20012;-68
2023/06/05 09:44:21;;;;;;;7.07;4.00;;;21.40;56.80;;;;;;5066798;28;20113;-68
2023/06/05 09:46:54;;;;;;;7.72;4.78;;;21.50;56.60;;;;;;5073187;28;20028;-68
2023/06/05 09:49:20;;;;;;;5.72;4.50;;;21.70;56.40;;;;;;5069021;28;20083;-70
2023/06/05 09:51:47;;;;;;;6.65;4.32;;;21.70;56.20;;;;;;5069724;28;20029;-68
2023/06/05 09:54:13;;;;;;;6.70;4.43;;;21.70;56.10;;;;;;5070025;28;20027;-68
2023/06/05 09:56:46;;;;;;;7.53;4.53;;;21.80;56.00;;;;;;5068451;28;20084;-68
2023/06/05 09:59:16;;;;;;;7.18;4.05;;;21.70;55.90;;;;;;5070412;28;20021;-68
2023/06/05 10:01:43;;;;;;;4.60;3.78;;;21.80;55.80;;;;;;5067707;28;20032;-68
2023/06/05 10:04:11;;;;;;;4.95;3.88;;;21.80;55.60;;;;;;5068985;28;20024;-68
2023/06/05 10:06:37;;;;;;;6.63;4.60;;;21.90;55.40;;;;;;5064390;28;20033;-69
2023/06/05 10:09:03;;;;;;;5.68;4.10;;;21.90;55.30;;;;;;5069275;28;20028;-68
2023/06/05 10:11:29;;;;;;;4.13;3.30;;;22.00;55.20;;;;;;5072292;28;20450;-69
2023/06/05 10:13:58;;;;;;;5.18;4.10;;;22.20;55.10;;;;;;5067184;28;20666;-69
2023/06/05 10:16:27;;;;;;;6.88;3.80;;;22.30;54.60;;;;;;5076278;28;20103;-69
2023/06/05 10:18:56;;;;;;;5.97;4.20;;;22.30;54.30;;;;;;5074642;28;20029;-69
2023/06/05 10:21:23;;;;;;;6.53;4.00;;;22.30;53.80;;;;;;5066576;28;20256;-69
2023/06/05 10:23:51;;;;;;;6.57;3.97;;;22.40;54.00;;;;;;5068274;28;20083;-69
2023/06/05 10:26:51;;;;;;;4.80;3.42;;;22.50;54.00;;;;;;5070876;28;20013;-70
2023/06/05 10:29:29;;;;;;;5.18;3.55;;;22.60;54.00;;;;;;5068128;28;20430;-69
2023/06/05 10:32:06;;;;;;;5.75;3.70;;;22.90;53.60;;;;;;5069605;28;20474;-69
2023/06/05 10:34:38;;;;;;;5.18;3.70;;;22.90;53.20;;;;;;5071514;28;20561;-69
2023/06/05 10:37:07;;;;;;;3.90;3.50;;;22.90;53.20;;;;;;5070061;28;20016;-69
2023/06/05 10:39:34;;;;;;;4.05;2.80;;;22.90;53.00;;;;;;5069089;28;20066;-69
2023/06/05 10:42:00;;;;;;;5.80;3.78;;;23.00;53.00;;;;;;5069503;28;20048;-69
2023/06/05 10:44:42;;;;;;;4.45;3.15;;;23.10;52.80;;;;;;5070459;28;20482;-69
2023/06/05 10:47:32;;;;;;;5.15;3.88;;;23.20;52.80;;;;;;5068960;28;20024;-69
2023/06/05 10:50:16;;;;;;;5.38;3.58;;;23.30;52.30;;;;;;5070822;28;20031;-69
2023/06/05 10:52:42;;;;;;;4.47;3.75;;;23.30;52.10;;;;;;5066879;28;20399;-68
2023/06/05 10:55:12;;;;;;;5.43;3.78;;;23.40;51.90;;;;;;5070677;28;20024;-69
2023/06/05 10:58:03;;;;;;;5.65;3.20;;;23.40;51.90;;;;;;5067665;28;20027;-68
2023/06/05 11:00:29;;;;;;;9.38;5.05;;;23.60;52.00;;;;;;5065296;28;20052;-69
2023/06/05 11:02:56;;;;;;;5.00;3.42;;;23.60;51.00;;;;;;5068686;28;20111;-69
2023/06/05 11:05:22;;;;;;;5.63;3.70;;;23.50;51.70;;;;;;5070198;28;20060;-69
2023/06/05 11:08:08;;;;;;;3.97;2.90;;;23.60;51.60;;;;;;5071052;28;20036;-69
2023/06/05 11:10:33;;;;;;;4.38;3.38;;;23.80;52.00;;;;;;5067509;28;20028;-69
2023/06/05 11:13:00;;;;;;;4.50;3.47;;;23.90;51.30;;;;;;5066735;28;20028;-69
2023/06/05 11:15:38;;;;;;;4.18;2.83;;;23.90;50.90;;;;;;5065687;28;20024;-68
2023/06/05 11:18:26;;;;;;;5.32;3.33;;;23.80;50.90;;;;;;5070950;28;20081;-69
2023/06/05 11:20:52;;;;;;;5.03;2.88;;;23.80;50.80;;;;;;5067385;28;20084;-69
2023/06/05 11:23:17;;;;;;;4.75;3.13;;;24.00;50.80;;;;;;5070986;28;20103;-69
2023/06/05 11:25:43;;;;;;;4.40;2.53;;;24.10;50.60;;;;;;5071608;28;20478;-68
2023/06/05 11:28:09;;;;;;;6.10;3.63;;;24.40;50.40;;;;;;5072636;28;20089;-69
2023/06/05 11:30:45;;;;;;;5.82;3.45;;;24.30;49.50;;;;;;5077031;28;20029;-69
2023/06/05 11:33:16;;;;;;;5.07;3.45;;;24.20;49.70;;;;;;5075269;28;20024;-69
2023/06/05 11:35:44;;;;;;;6.68;3.17;;;24.20;49.10;;;;;;5073685;28;20020;-68
2023/06/05 11:38:18;;;;;;;5.38;3.10;;;24.40;49.40;;;;;;5071264;28;20029;-69
2023/06/05 11:40:44;;;;;;;4.35;2.65;;;24.50;49.20;;;;;;5074586;28;20507;-69
2023/06/05 11:43:11;;;;;;;3.85;2.50;;;24.60;48.80;;;;;;5076354;28;20032;-69
2023/06/05 11:45:39;;;;;;;3.45;2.55;;;24.80;48.50;;;;;;5078245;28;20032;-70
2023/06/05 11:48:08;;;;;;;3.13;2.63;;;25.10;47.90;;;;;;5064174;28;20025;-69
2023/06/05 11:50:35;;;;;;;4.45;2.60;;;25.20;47.20;;;;;;5073199;28;20082;-69
2023/06/05 11:53:08;;;;;;;4.22;2.55;;;25.30;46.90;;;;;;5067762;28;20021;-69
2023/06/05 11:56:06;;;;;;;4.22;3.20;;;25.30;46.60;;;;;;5074579;28;20025;-69
2023/06/05 11:58:27;;;;;;;6.47;3.28;;;25.50;46.70;;;;;;5064589;28;20038;-70
2023/06/05 12:01:31;;;;;;;4.82;3.50;;;25.40;46.60;;;;;;5069527;28;20475;-69
2023/06/05 12:04:05;;;;;;;5.28;3.30;;;25.30;45.90;;;;;;5072181;28;20487;-69
2023/06/05 12:06:31;;;;;;;4.57;2.90;;;25.20;46.50;;;;;;5071138;28;20390;-71
2023/06/05 12:09:14;;;;;;;4.72;2.58;;;25.40;46.60;;;;;;5066218;28;20043;-69
2023/06/05 12:11:39;;;;;;;4.70;3.25;;;25.50;46.40;;;;;;5066718;28;20036;-70
2023/06/05 12:14:06;;;;;;;3.95;2.40;;;25.60;45.10;;;;;;5067923;28;20491;-69
2023/06/05 12:16:36;;;;;;;4.05;2.78;;;25.50;45.80;;;;;;5071579;28;20048;-69
2023/06/05 12:19:13;;;;;;;3.80;3.00;;;25.80;45.50;;;;;;5069764;28;20035;-69
2023/06/05 12:21:38;;;;;;;4.20;2.78;;;25.80;45.50;;;;;;5072430;28;20028;-70
2023/06/05 12:24:05;;;;;;;5.05;3.00;;;25.80;45.30;;;;;;5073063;28;20032;-67
2023/06/05 12:26:53;;;;;;;3.75;2.70;;;26.00;45.60;;;;;;5070287;28;20132;-69
2023/06/05 12:29:20;;;;;;;3.45;2.70;;;26.00;45.20;;;;;;5072580;28;20036;-69
2023/06/05 12:31:46;;;;;;;3.78;2.58;;;26.20;45.00;;;;;;5070414;28;20044;-70
2023/06/05 12:34:12;;;;;;;4.65;2.80;;;26.40;44.80;;;;;;5071419;28;20043;-70
2023/06/05 12:36:42;;;;;;;2.63;2.13;;;26.50;44.30;;;;;;5068272;28;20028;-69
2023/06/05 12:39:12;;;;;;;4.15;2.42;;;26.60;43.60;;;;;;5071444;28;20431;-70
2023/06/05 12:41:39;;;;;;;6.78;2.65;;;26.60;43.00;;;;;;5070512;28;20029;-70
2023/06/05 12:44:06;;;;;;;3.53;2.47;;;26.50;43.20;;;;;;5066899;28;20059;-69
2023/06/05 12:46:32;;;;;;;2.92;2.33;;;26.50;43.60;;;;;;5066230;28;20027;-68
2023/06/05 12:48:59;;;;;;;3.22;2.20;;;26.50;43.90;;;;;;5069075;28;20028;-68
2023/06/05 12:51:26;;;;;;;4.80;2.22;;;26.60;43.20;;;;;;5070237;28;20024;-68